Nassau / Lynden Pindling International Airport

MYNN 232100Z 36011KT 9999 FEW025 26/20 A2996

TAF MYNN 231600Z 2318/2418 36010KT 9999 SCT020 BECMG 2401/2403 04012KT

Freeport / Grand Bahama International Airport

MYGF 232100Z 33016KT 9999 SCT020 25/22 A2998 RERA

TAF MYGF 231600Z 2318/2418 01010KT 9999 VCSH SCT020 BKN035 BECMG 2406/2408 04015KT

Providenciales International Airport

MBPV 232100Z 30004KT 9999 FEW005 SCT012 BKN050 27/21 Q1010

TAF MBPV 231600Z 2318/2418 36005KT 9999 VCSH SCT020 PROB30 TEMPO 2319/2321 8000 SHRA BKN018